createdAt,value
2018-09-25T00:02:02.594Z,1.53
2018-09-25T00:04:36.129Z,1.50
2018-09-25T00:07:09.708Z,1.80
2018-09-25T00:09:43.209Z,2.20
2018-09-25T00:12:16.861Z,1.47
2018-09-25T00:14:50.532Z,2.03
2018-09-25T00:17:24.057Z,2.03
2018-09-25T00:19:57.683Z,1.50
2018-09-25T00:22:31.345Z,1.60
2018-09-25T00:25:05.289Z,1.40
2018-09-25T00:27:38.876Z,1.67
2018-09-25T00:30:12.552Z,1.77
2018-09-25T00:32:46.138Z,1.60
2018-09-25T00:35:19.645Z,1.20
2018-09-25T00:37:53.333Z,1.73
2018-09-25T00:40:26.757Z,1.83
2018-09-25T00:43:00.476Z,1.70
2018-09-25T00:45:33.826Z,2.13
2018-09-25T00:48:07.612Z,1.90
2018-09-25T00:50:41.173Z,2.87
2018-09-25T00:53:14.678Z,1.87
2018-09-25T00:55:48.255Z,1.80
2018-09-25T00:58:21.893Z,2.03
2018-09-25T01:00:55.569Z,1.60
2018-09-25T01:03:29.101Z,1.93
2018-09-25T01:06:02.630Z,2.10
2018-09-25T01:08:36.353Z,1.70
2018-09-25T01:11:10.040Z,1.60
2018-09-25T01:13:43.750Z,1.53
2018-09-25T01:16:17.231Z,1.63
2018-09-25T01:18:50.857Z,1.57
2018-09-25T01:21:24.889Z,1.40
2018-09-25T01:23:58.361Z,2.17
2018-09-25T01:26:31.850Z,1.90
2018-09-25T01:29:05.543Z,1.80
2018-09-25T01:31:39.365Z,1.23
2018-09-25T01:34:12.965Z,1.70
2018-09-25T01:36:46.537Z,1.90
2018-09-25T01:39:20.077Z,2.07
2018-09-25T01:41:53.537Z,1.30
2018-09-25T01:44:27.245Z,1.77
2018-09-25T01:47:01.081Z,2.00
2018-09-25T01:49:34.689Z,1.20
2018-09-25T01:52:08.289Z,1.63
2018-09-25T01:54:41.970Z,1.83
2018-09-25T01:57:15.616Z,1.47
2018-09-25T01:59:49.152Z,2.37
2018-09-25T02:02:22.868Z,2.00
2018-09-25T02:04:56.579Z,1.60
2018-09-25T02:07:30.265Z,1.97
2018-09-25T02:10:04.497Z,2.33
2018-09-25T02:12:38.107Z,2.50
2018-09-25T02:15:11.588Z,1.93
2018-09-25T02:17:45.409Z,2.47
2018-09-25T02:20:18.934Z,1.67
2018-09-25T02:22:52.503Z,2.00
2018-09-25T02:25:26.149Z,2.60
2018-09-25T02:27:59.735Z,2.47
2018-09-25T02:30:33.480Z,2.13
2018-09-25T02:33:07.111Z,2.30
2018-09-25T02:35:40.789Z,2.00
2018-09-25T02:38:14.134Z,2.37
2018-09-25T02:40:47.788Z,1.90
2018-09-25T02:43:21.521Z,3.20
2018-09-25T02:45:55.222Z,2.00
2018-09-25T02:48:28.905Z,2.50
2018-09-25T02:51:02.453Z,2.20
2018-09-25T02:53:36.112Z,1.90
2018-09-25T02:56:10.809Z,2.20
2018-09-25T02:58:44.268Z,1.47
2018-09-25T03:01:17.892Z,1.47
2018-09-25T03:03:51.417Z,1.73
2018-09-25T03:06:26.425Z,1.63
2018-09-25T03:08:59.993Z,1.43
2018-09-25T03:11:34.366Z,1.93
2018-09-25T03:14:07.974Z,2.00
2018-09-25T03:16:41.702Z,2.40
2018-09-25T03:19:15.305Z,1.60
2018-09-25T03:21:48.881Z,2.47
2018-09-25T03:24:22.427Z,2.83
2018-09-25T03:26:56.118Z,2.50
2018-09-25T03:29:29.533Z,2.63
2018-09-25T03:32:03.380Z,2.33
2018-09-25T03:34:36.917Z,2.33
2018-09-25T03:37:10.581Z,1.63
2018-09-25T03:39:44.303Z,1.97
2018-09-25T03:42:18.390Z,2.60
2018-09-25T03:44:52.602Z,1.83
2018-09-25T03:47:26.263Z,2.33
2018-09-25T03:49:59.955Z,1.63
2018-09-25T03:52:33.464Z,1.93
2018-09-25T03:55:07.066Z,2.27
2018-09-25T03:57:40.750Z,1.90
2018-09-25T04:00:14.449Z,2.00
2018-09-25T04:02:48.103Z,2.57
2018-09-25T04:05:21.481Z,2.40
2018-09-25T04:07:55.247Z,2.70
2018-09-25T04:10:28.813Z,4.43
2018-09-25T04:13:02.456Z,4.30
2018-09-25T04:15:36.109Z,5.13
2018-09-25T04:18:09.858Z,3.70
2018-09-25T04:20:43.574Z,3.10
2018-09-25T04:23:17.138Z,2.90
2018-09-25T04:25:50.821Z,2.60
2018-09-25T04:28:24.421Z,2.47
2018-09-25T04:30:57.962Z,1.97
2018-09-25T04:33:31.437Z,2.20
2018-09-25T04:36:04.812Z,2.47
2018-09-25T04:38:38.245Z,2.43
2018-09-25T04:41:11.998Z,2.10
2018-09-25T04:43:45.506Z,2.77
2018-09-25T04:46:19.199Z,2.70
2018-09-25T04:48:52.871Z,2.10
2018-09-25T04:51:26.619Z,2.07
2018-09-25T04:54:00.357Z,2.37
2018-09-25T04:56:33.954Z,2.40
2018-09-25T04:59:07.370Z,2.97
2018-09-25T05:01:41.418Z,2.70
2018-09-25T05:04:15.320Z,3.40
2018-09-25T05:06:49.328Z,2.33
2018-09-25T05:09:23.253Z,1.90
2018-09-25T05:11:56.973Z,1.90
2018-09-25T05:14:30.388Z,2.03
2018-09-25T05:17:04.134Z,2.23
2018-09-25T05:19:37.780Z,2.20
2018-09-25T05:22:11.421Z,2.57
2018-09-25T05:24:45.029Z,2.43
2018-09-25T05:27:18.735Z,2.40
2018-09-25T05:29:52.397Z,2.17
2018-09-25T05:32:26.032Z,1.70
2018-09-25T05:34:59.774Z,2.50
2018-09-25T05:37:33.533Z,2.07
2018-09-25T05:40:07.118Z,3.40
2018-09-25T05:42:40.797Z,1.80
2018-09-25T05:45:14.389Z,2.90
2018-09-25T05:47:48.041Z,1.80
2018-09-25T05:50:21.606Z,2.40
2018-09-25T05:52:55.110Z,3.00
2018-09-25T05:55:28.981Z,2.50
2018-09-25T05:58:02.574Z,2.70
2018-09-25T06:00:36.351Z,3.97
2018-09-25T06:03:09.800Z,3.23
2018-09-25T06:05:43.259Z,3.00
2018-09-25T06:08:16.863Z,2.33
2018-09-25T06:10:50.506Z,2.10
2018-09-25T06:13:24.154Z,2.07
2018-09-25T06:15:57.733Z,2.03
2018-09-25T06:18:31.460Z,2.30
2018-09-25T06:21:05.121Z,1.80
2018-09-25T06:23:39.095Z,1.60
2018-09-25T06:26:12.766Z,1.93
2018-09-25T06:28:46.405Z,2.23
2018-09-25T06:31:20.001Z,1.50
2018-09-25T06:33:53.629Z,1.40
2018-09-25T06:36:27.125Z,1.83
2018-09-25T06:39:00.778Z,1.53
2018-09-25T06:41:34.320Z,1.30
2018-09-25T06:44:07.908Z,1.57
2018-09-25T06:46:41.579Z,2.53
2018-09-25T06:49:15.155Z,1.57
2018-09-25T06:51:48.840Z,1.97
2018-09-25T06:54:22.522Z,2.00
2018-09-25T06:56:56.745Z,1.97
2018-09-25T06:59:30.433Z,2.17
2018-09-25T07:02:04.446Z,1.60
2018-09-25T07:04:38.864Z,1.70
2018-09-25T07:07:12.597Z,1.50
2018-09-25T07:09:46.236Z,1.53
2018-09-25T07:12:19.809Z,1.57
2018-09-25T07:14:53.278Z,1.13
2018-09-25T07:17:26.630Z,1.17
2018-09-25T07:20:00.242Z,1.00
2018-09-25T07:22:33.796Z,1.80
2018-09-25T07:25:08.047Z,1.40
2018-09-25T07:27:41.393Z,1.30
2018-09-25T07:30:15.077Z,1.13
2018-09-25T07:32:48.585Z,1.10
2018-09-25T07:35:22.690Z,1.23
2018-09-25T07:37:56.109Z,0.93
2018-09-25T07:40:29.806Z,1.10
2018-09-25T07:43:03.357Z,1.20
2018-09-25T07:45:36.944Z,0.93
2018-09-25T07:48:10.614Z,1.23
2018-09-25T07:50:44.266Z,1.10
2018-09-25T07:53:17.800Z,0.80
2018-09-25T07:55:51.266Z,0.93
2018-09-25T07:58:24.937Z,0.80
2018-09-25T08:00:58.549Z,0.77
2018-09-25T08:03:32.020Z,1.00
2018-09-25T08:06:05.593Z,1.47
2018-09-25T08:08:46.853Z,0.90
2018-09-25T08:11:20.476Z,0.93
2018-09-25T08:13:53.870Z,0.90
2018-09-25T08:16:27.433Z,0.87
2018-09-25T08:19:01.149Z,1.10
2018-09-25T08:21:34.548Z,0.73
2018-09-25T08:24:08.204Z,1.30
2018-09-25T08:26:41.852Z,0.83
2018-09-25T08:29:15.461Z,0.90
2018-09-25T08:31:49.021Z,1.20
2018-09-25T08:34:23.205Z,1.50
2018-09-25T08:36:56.895Z,0.90
2018-09-25T08:39:30.525Z,1.00
2018-09-25T08:42:04.120Z,1.10
2018-09-25T08:44:37.615Z,0.90
2018-09-25T08:47:11.379Z,0.80
2018-09-25T08:49:45.118Z,0.90
2018-09-25T08:52:18.809Z,0.80
2018-09-25T08:54:52.444Z,1.03
2018-09-25T08:57:26.459Z,0.80
2018-09-25T09:00:00.033Z,0.93
2018-09-25T09:02:33.722Z,0.87
2018-09-25T09:05:07.310Z,0.90
2018-09-25T09:07:40.997Z,0.50
2018-09-25T09:10:14.486Z,1.20
2018-09-25T09:12:48.122Z,0.90
2018-09-25T09:15:21.759Z,0.60
2018-09-25T09:17:55.426Z,0.90
2018-09-25T09:20:29.027Z,1.00
2018-09-25T09:23:02.632Z,0.77
2018-09-25T09:25:36.195Z,0.67
2018-09-25T09:28:10.086Z,1.23
2018-09-25T09:30:43.678Z,0.83
2018-09-25T09:33:17.344Z,0.80
2018-09-25T09:35:50.943Z,0.90
2018-09-25T09:38:24.564Z,0.60
2018-09-25T09:40:58.267Z,1.27
2018-09-25T09:43:31.854Z,0.83
2018-09-25T09:46:05.515Z,0.87
2018-09-25T09:48:39.230Z,0.80
2018-09-25T09:51:12.908Z,0.77
2018-09-25T09:53:46.388Z,1.00
2018-09-25T09:56:20.178Z,0.73
2018-09-25T09:58:53.750Z,0.60
2018-09-25T10:01:27.310Z,0.60
2018-09-25T10:04:00.953Z,0.70
2018-09-25T10:06:34.511Z,0.87
2018-09-25T10:09:08.917Z,0.50
2018-09-25T10:11:42.918Z,0.70
2018-09-25T10:14:16.682Z,0.90
2018-09-25T10:16:50.065Z,0.70
2018-09-25T10:19:24.245Z,0.80
2018-09-25T10:21:57.656Z,0.90
2018-09-25T10:24:31.865Z,0.77
2018-09-25T10:27:05.323Z,0.90
2018-09-25T10:29:39.337Z,0.90
2018-09-25T10:32:12.957Z,0.70
2018-09-25T10:34:47.256Z,0.90
2018-09-25T10:37:20.879Z,0.87
2018-09-25T10:39:54.542Z,0.67
2018-09-25T10:42:28.169Z,0.90
2018-09-25T10:45:01.745Z,1.70
2018-09-25T10:47:35.325Z,1.03
2018-09-25T10:50:08.971Z,0.90
2018-09-25T10:52:42.337Z,0.90
2018-09-25T10:55:16.312Z,0.80
2018-09-25T10:57:49.959Z,0.93
2018-09-25T11:00:23.497Z,1.10
2018-09-25T11:02:57.161Z,0.80
2018-09-25T11:05:30.509Z,1.30
2018-09-25T11:08:04.045Z,1.10
2018-09-25T11:10:37.602Z,1.10
2018-09-25T11:13:11.253Z,1.37
2018-09-25T11:15:44.707Z,1.20
2018-09-25T11:18:18.836Z,1.13
2018-09-25T11:20:52.751Z,0.90
2018-09-25T11:23:27.345Z,1.10
2018-09-25T11:26:00.941Z,0.87
2018-09-25T11:28:34.449Z,1.03
2018-09-25T11:31:07.991Z,0.70
2018-09-25T11:33:41.698Z,1.10
2018-09-25T11:36:15.228Z,1.00
2018-09-25T11:38:48.638Z,1.23
2018-09-25T11:41:22.193Z,0.87
2018-09-25T11:43:56.498Z,0.90
2018-09-25T11:46:30.511Z,0.90
2018-09-25T11:49:04.015Z,1.20
2018-09-25T11:51:37.681Z,1.07
2018-09-25T11:54:11.321Z,1.30
2018-09-25T11:56:44.926Z,1.40
2018-09-25T11:59:18.450Z,0.80
2018-09-25T12:01:51.962Z,1.20
2018-09-25T12:04:25.635Z,0.60
2018-09-25T12:06:59.085Z,0.60
2018-09-25T12:09:32.658Z,1.30
2018-09-25T12:12:06.169Z,0.80
2018-09-25T12:14:39.791Z,0.77
2018-09-25T12:17:13.291Z,0.77
2018-09-25T12:19:46.903Z,1.27
2018-09-25T12:22:20.484Z,0.80
2018-09-25T12:24:53.992Z,0.80
2018-09-25T12:27:27.545Z,0.90
2018-09-25T12:30:00.920Z,0.90
2018-09-25T12:32:34.693Z,0.60
2018-09-25T12:35:08.365Z,1.20
2018-09-25T12:37:42.106Z,0.90
2018-09-25T12:40:16.090Z,1.00
2018-09-25T12:42:50.077Z,0.80
2018-09-25T12:45:23.565Z,0.77
2018-09-25T12:47:57.381Z,0.70
2018-09-25T12:50:30.960Z,0.63
2018-09-25T12:53:04.506Z,0.40
2018-09-25T12:55:38.058Z,1.00
2018-09-25T12:58:11.720Z,0.87
2018-09-25T13:00:45.173Z,1.00
2018-09-25T13:03:18.697Z,0.90
2018-09-25T13:05:52.380Z,1.00
2018-09-25T13:08:25.793Z,0.90
2018-09-25T13:10:59.413Z,0.93
2018-09-25T13:13:33.103Z,0.77
2018-09-25T13:16:06.749Z,0.90
2018-09-25T13:18:40.244Z,1.10
2018-09-25T13:21:13.638Z,0.80
2018-09-25T13:23:47.622Z,0.67
2018-09-25T13:26:21.277Z,0.70
2018-09-25T13:28:55.194Z,0.80
2018-09-25T13:31:28.835Z,0.90
2018-09-25T13:34:02.341Z,0.60
2018-09-25T13:36:35.945Z,0.60
2018-09-25T13:39:12.881Z,0.60
2018-09-25T13:41:46.780Z,0.90
2018-09-25T13:44:20.367Z,0.80
2018-09-25T13:46:54.306Z,0.83
2018-09-25T13:49:27.879Z,1.00
2018-09-25T13:52:01.421Z,1.60
2018-09-25T13:54:34.932Z,0.90
2018-09-25T13:57:08.413Z,0.90
2018-09-25T13:59:42.126Z,0.43
2018-09-25T14:02:15.700Z,0.60
2018-09-25T14:04:49.253Z,0.80
2018-09-25T14:07:22.902Z,0.50
2018-09-25T14:09:56.451Z,0.40
2018-09-25T14:12:30.177Z,0.77
2018-09-25T14:15:03.797Z,0.60
2018-09-25T14:17:37.348Z,0.70
2018-09-25T14:20:11.102Z,0.80
2018-09-25T14:22:45.069Z,0.90
2018-09-25T14:25:18.794Z,0.50
2018-09-25T14:27:52.413Z,0.80
2018-09-25T14:30:26.764Z,0.80
2018-09-25T14:33:00.457Z,1.17
2018-09-25T14:35:35.689Z,0.90
2018-09-25T14:38:09.253Z,1.10
2018-09-25T14:40:43.508Z,0.80
2018-09-25T14:43:17.117Z,1.13
2018-09-25T14:45:50.642Z,1.20
2018-09-25T14:48:24.365Z,1.03
2018-09-25T14:50:58.821Z,1.07
2018-09-25T14:53:32.440Z,0.70
2018-09-25T14:56:07.944Z,0.80
2018-09-25T14:58:41.645Z,0.93
2018-09-25T15:01:15.201Z,1.30
2018-09-25T15:03:48.954Z,0.90
2018-09-25T15:06:22.528Z,1.17
2018-09-25T15:08:56.221Z,0.90
2018-09-25T15:11:30.075Z,1.00
2018-09-25T15:14:03.756Z,0.70
2018-09-25T15:16:37.397Z,0.90
2018-09-25T15:19:11.257Z,1.40
2018-09-25T15:21:45.035Z,0.77
2018-09-25T15:24:18.643Z,0.90
2018-09-25T15:26:52.157Z,0.90
2018-09-25T15:29:26.544Z,1.00
2018-09-25T15:32:00.130Z,1.17
2018-09-25T15:34:33.762Z,0.80
2018-09-25T15:37:07.406Z,0.90
2018-09-25T15:39:40.782Z,1.00
2018-09-25T15:42:14.837Z,0.70
2018-09-25T15:44:48.444Z,0.90
2018-09-25T15:47:22.174Z,0.70
2018-09-25T15:49:55.809Z,1.13
2018-09-25T15:52:29.421Z,0.83
2018-09-25T15:55:02.995Z,0.80
2018-09-25T15:57:36.524Z,0.73
2018-09-25T16:00:10.215Z,0.90
2018-09-25T16:02:43.918Z,0.73
2018-09-25T16:05:17.456Z,1.17
2018-09-25T16:07:50.995Z,0.77
2018-09-25T16:10:24.649Z,0.90
2018-09-25T16:12:58.213Z,1.43
2018-09-25T16:15:31.888Z,0.90
2018-09-25T16:18:05.477Z,1.20
2018-09-25T16:20:39.053Z,0.90
2018-09-25T16:23:12.703Z,1.07
2018-09-25T16:25:47.292Z,1.10
2018-09-25T16:28:20.840Z,1.10
2018-09-25T16:30:54.604Z,1.83
2018-09-25T16:33:28.253Z,1.07
2018-09-25T16:36:01.733Z,1.20
2018-09-25T16:38:35.289Z,1.13
2018-09-25T16:41:08.883Z,0.70
2018-09-25T16:43:42.353Z,1.00
2018-09-25T16:46:16.296Z,1.10
2018-09-25T16:48:49.825Z,1.13
2018-09-25T16:51:23.491Z,0.83
2018-09-25T16:53:57.178Z,1.00
2018-09-25T16:56:30.880Z,0.90
2018-09-25T16:59:04.557Z,0.80
2018-09-25T17:01:38.066Z,0.97
2018-09-25T17:04:11.713Z,3.10
2018-09-25T17:06:45.061Z,4.53
2018-09-25T17:09:18.554Z,8.13
2018-09-25T17:11:52.172Z,11.40
2018-09-25T17:14:25.914Z,8.50
2018-09-25T17:16:59.435Z,5.33
2018-09-25T17:19:33.017Z,4.03
2018-09-25T17:22:06.693Z,3.30
2018-09-25T17:24:40.224Z,2.53
2018-09-25T17:27:13.606Z,2.50
2018-09-25T17:29:47.133Z,2.60
2018-09-25T17:32:21.020Z,2.33
2018-09-25T17:34:54.634Z,3.30
2018-09-25T17:37:28.242Z,5.50
2018-09-25T17:40:01.883Z,2.87
2018-09-25T17:42:35.312Z,3.27
2018-09-25T17:45:09.472Z,3.53
2018-09-25T17:47:43.094Z,2.20
2018-09-25T17:50:16.730Z,8.70
2018-09-25T17:52:50.357Z,4.37
2018-09-25T17:55:23.865Z,3.27
2018-09-25T17:57:57.266Z,2.77
2018-09-25T18:00:31.085Z,2.57
2018-09-25T18:03:04.704Z,2.00
2018-09-25T18:05:38.180Z,2.90
2018-09-25T18:08:11.941Z,15.80
2018-09-25T18:10:45.388Z,16.90
2018-09-25T18:13:19.045Z,8.00
2018-09-25T18:15:52.743Z,3.37
2018-09-25T18:18:26.298Z,2.57
2018-09-25T18:20:59.781Z,2.83
2018-09-25T18:23:33.413Z,1.80
2018-09-25T18:26:06.988Z,2.10
2018-09-25T18:28:40.594Z,2.20
2018-09-25T18:31:15.091Z,1.50
2018-09-25T18:33:48.605Z,2.17
2018-09-25T18:36:22.749Z,1.70
2018-09-25T18:38:56.313Z,2.00
2018-09-25T18:41:29.838Z,1.87
2018-09-25T18:44:03.556Z,2.10
2018-09-25T18:46:37.222Z,2.03
2018-09-25T18:49:10.864Z,2.00
2018-09-25T18:51:44.706Z,1.53
2018-09-25T18:54:18.396Z,1.10
2018-09-25T18:56:52.070Z,1.10
2018-09-25T18:59:25.761Z,1.70
2018-09-25T19:01:59.313Z,1.63
2018-09-25T19:04:32.922Z,1.93
2018-09-25T19:07:06.322Z,6.17
2018-09-25T19:09:39.978Z,3.53
2018-09-25T19:12:13.673Z,2.80
2018-09-25T19:14:47.256Z,1.97
2018-09-25T19:17:20.887Z,1.80
2018-09-25T19:19:54.398Z,2.77
2018-09-25T19:22:27.950Z,9.03
2018-09-25T19:25:01.653Z,6.77
2018-09-25T19:27:35.394Z,8.10
2018-09-25T19:30:08.809Z,2.97
2018-09-25T19:32:42.426Z,3.80
2018-09-25T19:35:15.934Z,2.83
2018-09-25T19:37:49.589Z,3.80
2018-09-25T19:40:23.362Z,3.83
2018-09-25T19:42:57.280Z,3.00
2018-09-25T19:45:30.787Z,3.70
2018-09-25T19:48:04.425Z,4.00
2018-09-25T19:50:38.952Z,4.60
2018-09-25T19:53:12.441Z,4.07
2018-09-25T19:55:46.142Z,3.77
2018-09-25T19:58:20.145Z,2.97
2018-09-25T20:00:53.739Z,3.20
2018-09-25T20:03:27.398Z,2.50
2018-09-25T20:06:00.860Z,2.53
2018-09-25T20:08:34.541Z,3.00
2018-09-25T20:11:08.137Z,3.03
2018-09-25T20:13:41.718Z,2.87
2018-09-25T20:16:16.651Z,3.33
2018-09-25T20:18:50.341Z,2.47
2018-09-25T20:21:23.906Z,2.37
2018-09-25T20:23:57.552Z,2.40
2018-09-25T20:26:31.111Z,2.30
2018-09-25T20:29:04.725Z,2.33
2018-09-25T20:31:38.196Z,2.53
2018-09-25T20:34:12.334Z,2.37
2018-09-25T20:36:45.965Z,1.87
2018-09-25T20:39:19.440Z,2.13
2018-09-25T20:41:53.153Z,4.93
2018-09-25T20:44:26.701Z,3.10
2018-09-25T20:47:00.415Z,2.40
2018-09-25T20:49:34.165Z,2.80
2018-09-25T20:55:57.002Z,2.10
2018-09-25T20:58:42.041Z,3.50
2018-09-25T21:01:26.440Z,2.97
2018-09-25T21:04:18.264Z,2.60
2018-09-25T21:07:16.111Z,3.00
2018-09-25T21:13:30.738Z,2.90
2018-09-25T21:25:32.781Z,2.13
2018-09-25T21:28:16.711Z,1.40
2018-09-25T21:30:57.602Z,1.60
2018-09-25T21:33:39.568Z,1.37
2018-09-25T21:40:01.456Z,1.57
2018-09-25T21:43:05.167Z,2.00
2018-09-25T21:45:45.821Z,1.67
2018-09-25T21:48:33.220Z,1.80
2018-09-25T21:51:19.724Z,1.57
2018-09-25T21:53:59.756Z,1.30
2018-09-25T21:56:50.778Z,1.90
2018-09-25T21:59:35.053Z,1.37
2018-09-25T22:02:13.546Z,1.90
2018-09-25T22:04:56.726Z,1.70
2018-09-25T22:07:35.278Z,1.80
2018-09-25T22:10:16.524Z,2.63
2018-09-25T22:12:55.863Z,2.23
2018-09-25T22:15:38.529Z,2.10
2018-09-25T22:18:22.397Z,2.50
2018-09-25T22:21:05.253Z,1.77
2018-09-25T22:23:47.728Z,2.90
2018-09-25T22:26:34.442Z,1.60
2018-09-25T22:31:59.407Z,1.63
2018-09-25T22:34:46.295Z,1.80
2018-09-25T22:37:20.046Z,1.80
2018-09-25T22:39:53.710Z,1.87
2018-09-25T22:42:27.376Z,1.97
2018-09-25T22:45:00.865Z,1.73
2018-09-25T22:47:35.607Z,2.03
2018-09-25T22:50:09.241Z,3.20
2018-09-25T22:52:42.749Z,2.13
2018-09-25T22:55:16.454Z,2.90
2018-09-25T22:57:50.093Z,2.30
2018-09-25T23:00:24.090Z,2.23
2018-09-25T23:02:57.721Z,1.60
2018-09-25T23:05:31.237Z,1.93
2018-09-25T23:08:04.753Z,1.93
2018-09-25T23:10:38.430Z,2.30
2018-09-25T23:13:12.093Z,2.17
2018-09-25T23:15:45.889Z,2.43
2018-09-25T23:18:19.543Z,2.63
2018-09-25T23:20:53.180Z,2.03
2018-09-25T23:23:26.713Z,1.87
2018-09-25T23:26:00.497Z,2.30
2018-09-25T23:28:33.979Z,2.03
2018-09-25T23:31:07.457Z,1.47
2018-09-25T23:33:41.197Z,2.13
2018-09-25T23:36:14.807Z,2.03
2018-09-25T23:38:48.546Z,2.10
2018-09-25T23:41:27.810Z,1.60
2018-09-25T23:44:01.609Z,1.47
2018-09-25T23:46:35.433Z,1.27
2018-09-25T23:49:08.777Z,1.50
2018-09-25T23:51:39.372Z,1.30
2018-09-25T23:54:20.740Z,1.20
2018-09-25T23:56:53.785Z,1.57
2018-09-25T23:59:30.410Z,1.33
